Latest Weather Observations for Mangalore

IDV60801

Issued at 5:02 am EST Thursday 5 May 2016 (issued every 30 minutes, with the page automatically refreshed every 10 minutes)

About weather observations | Map of weather stations | Latest weather observations for VIC | Other Formats
Station Details ID: 088109 Name: MANGALORE AIRPORT Lat: -36.89 Lon: 145.19 Height: 140.8 m
Data from the previous 72 hours. | See also: Recent months at Mangalore
Date/Time
EST
Temp
°C
App
Temp
°C
Dew
Point
Rel
Hum
%
Delta-T
°C
Wind Press
QNH
hPa
Press
MSL
hPa
Rain
since 9 am
mm
Dir
 
Spd
km/h
Gust
km/h
Spd
kts
Gust
kts
05/05:00am 12.7 10.0 7.4 70 2.6 NNE 11 15 6 8 1018.2 1018.3 -
05/04:30am 12.8 9.8 7.5 70 2.6 NNE 13 17 7 9 1018.2 1018.3 0.0
05/04:00am 12.9 9.9 7.6 70 2.6 NNE 13 17 7 9 1018.2 1018.3 0.0
05/03:30am 12.9 9.9 7.6 70 2.6 NNE 13 19 7 10 1018.2 1018.3 0.0
05/03:00am 13.0 10.0 7.5 69 2.7 NNE 13 19 7 10 1018.4 1018.5 0.0
05/02:30am 13.0 10.0 7.5 69 2.7 NNE 13 17 7 9 1018.3 1018.4 0.0
05/02:00am 13.2 9.7 7.2 67 2.9 NNE 15 19 8 10 1018.4 1018.5 0.0
05/01:30am 13.2 9.3 7.2 67 2.9 NNE 17 20 9 11 1018.3 1018.4 0.0
05/01:00am 13.1 9.6 7.1 67 2.9 NNE 15 20 8 11 1018.3 1018.4 0.0
05/12:30am 13.1 10.0 7.1 67 2.9 NNE 13 17 7 9 1018.4 1018.5 0.0
05/12:00am 13.1 9.9 6.9 66 3.0 NNE 13 19 7 10 1018.4 1018.5 0.0
 
Date/Time
EST
Temp
°C
App
Temp
°C
Dew
Point
Rel
Hum
%
Delta-T
°C
Wind Press
QNH
hPa
Press
MSL
hPa
Rain
since 9 am
mm
Dir
 
Spd
km/h
Gust
km/h
Spd
kts
Gust
kts
04/11:30pm 13.2 10.0 7.0 66 3.0 NNE 13 17 7 9 1018.6 1018.7 0.0
04/11:00pm 13.3 10.0 6.6 64 3.2 NNE 13 17 7 9 1018.8 1018.8 0.0
04/10:30pm 13.3 10.0 6.6 64 3.2 NNE 13 17 7 9 1018.8 1018.8 0.0
04/10:00pm 13.3 10.0 6.4 63 3.3 NNE 13 17 7 9 1018.9 1018.9 0.0
04/09:30pm 13.2 10.3 6.3 63 3.3 NNE 11 13 6 7 1018.9 1018.9 0.0
04/09:00pm 13.4 10.1 6.3 62 3.4 NNE 13 17 7 9 1018.5 1018.6 0.0
04/08:30pm 13.4 10.1 6.5 63 3.3 NNE 13 17 7 9 1018.4 1018.5 0.0
04/08:00pm 13.5 10.2 6.4 62 3.4 NNE 13 17 7 9 1018.2 1018.3 0.0
04/07:30pm 13.7 10.0 6.3 61 3.6 NNE 15 19 8 10 1018.0 1018.1 0.0
04/07:00pm 13.6 10.3 6.2 61 3.5 NNE 13 19 7 10 1017.8 1017.9 0.0
04/06:30pm 13.7 10.3 6.1 60 3.6 NNE 13 17 7 9 1017.5 1017.6 0.0
04/06:00pm 13.8 10.4 5.9 59 3.8 N 13 15 7 8 1017.2 1017.3 0.0
04/05:30pm 14.1 11.0 5.5 56 4.1 N 11 15 6 8 1016.9 1017.0 0.0
04/05:00pm 14.5 10.6 5.3 54 4.4 N 15 20 8 11 1016.8 1016.9 0.0
04/04:30pm 14.7 10.4 5.2 53 4.5 NNW 17 22 9 12 1016.5 1016.6 0.0
04/04:00pm 14.8 10.1 5.3 53 4.5 NNW 19 24 10 13 1016.5 1016.6 0.0
04/03:30pm 14.9 10.7 5.7 54 4.4 NNW 17 24 9 13 1016.4 1016.5 0.0
04/03:00pm 14.9 10.2 5.1 52 4.6 NW 19 28 10 15 1016.4 1016.5 0.0
04/02:30pm 15.1 10.7 4.5 49 5.0 NW 17 24 9 13 1016.2 1016.3 0.0
04/02:00pm 15.5 10.7 4.6 48 5.1 NW 19 26 10 14 1016.3 1016.4 0.0
04/01:30pm 14.8 10.4 4.8 51 4.7 NW 17 20 9 11 1016.4 1016.5 0.0
04/01:00pm 15.1 10.7 4.5 49 5.0 N 17 24 9 13 1016.4 1016.5 0.0
04/12:30pm 14.3 10.6 6.2 58 3.9 N 15 24 8 13 1016.6 1016.7 0.0
04/12:00pm 14.9 11.5 7.5 61 3.7 N 15 20 8 11 1017.1 1017.2 0.0
04/11:30am 14.2 11.2 7.5 64 3.3 N 13 20 7 11 1017.3 1017.4 0.0
04/11:00am 12.6 9.5 7.1 69 2.7 NNE 13 19 7 10 1017.4 1017.5 0.0
04/10:30am 12.6 10.5 8.3 75 2.1 NE 9 13 5 7 1017.5 1017.6 0.0
04/10:18am 12.2 10.2 8.7 79 1.8 NE 9 13 5 7 1017.4 1017.5 0.0
04/10:00am 11.6 9.9 8.3 80 1.6 ENE 7 13 4 7 1017.4 1017.5 0.0
04/09:30am 10.9 10.1 9.8 93 0.6 NNW 4 7 2 4 1017.3 1017.4 0.0
04/09:27am 11.0 9.9 10.1 94 0.5 N 6 9 3 5 1017.3 1017.4 0.0
04/09:00am 9.7 8.3 9.6 99 0.1 ENE 7 9 4 5 1016.9 1017.0 0.2
04/08:30am 8.7 7.3 8.7 100 0.0 ENE 6 6 3 3 1016.6 1016.7 0.2
04/08:01am 6.7 4.8 6.6 99 0.0 ENE 6 7 3 4 1016.2 1016.3 0.2
04/08:00am 6.6 4.7 6.5 99 0.0 ENE 6 7 3 4 1016.2 1016.3 0.2
04/07:30am 4.0 1.5 3.9 99 0.0 ENE 6 7 3 4 1015.5 1015.6 0.2
04/07:27am 3.8 1.3 3.7 99 0.0 ENE 6 7 3 4 1015.6 1015.7 0.2
04/07:00am 3.4 2.0 3.3 99 0.0 CALM 0 0 0 0 1015.1 1015.2 0.2
04/06:45am 4.2 2.9 4.1 99 0.0 CALM 0 0 0 0 1015.1 1015.2 0.2
04/06:30am 4.5 3.3 4.4 99 0.0 CALM 0 0 0 0 1014.8 1014.9 0.2
04/06:00am 4.3 1.9 4.2 99 0.0 ENE 6 7 3 4 1014.3 1014.4 0.2
04/05:30am 4.8 2.5 4.7 99 0.0 ENE 6 6 3 3 1013.9 1014.0 0.2
04/05:00am 5.8 4.4 5.7 99 0.0 ENE 2 6 1 3 1013.7 1013.8 0.2
04/04:30am 6.1 4.8 5.8 98 0.1 ENE 2 6 1 3 1013.1 1013.1 0.2
04/04:00am 6.9 6.1 6.5 97 0.2 CALM 0 0 0 0 1012.5 1012.5 0.2
04/03:30am 6.2 3.4 5.0 92 0.5 NE 9 9 5 5 1012.0 1012.0 0.2
04/03:00am 8.6 6.7 7.4 92 0.6 W 7 9 4 5 1011.7 1011.7 0.2
04/02:30am 8.9 6.9 7.2 89 0.8 WNW 7 11 4 6 1011.6 1011.6 0.2
04/02:00am 9.0 6.4 6.3 83 1.3 WNW 9 11 5 6 1011.1 1011.2 0.2
04/01:30am 10.6 7.5 7.3 80 1.6 WNW 13 20 7 11 1011.2 1011.3 0.2
04/01:00am 10.4 7.6 7.1 80 1.6 W 11 15 6 8 1011.1 1011.2 0.2
04/12:30am 11.0 8.6 8.8 86 1.1 WNW 11 19 6 10 1010.9 1011.0 0.2
04/12:00am 10.8 8.8 8.6 86 1.1 NW 9 11 5 6 1010.5 1010.6 0.2
 
Date/Time
EST
Temp
°C
App
Temp
°C
Dew
Point
Rel
Hum
%
Delta-T
°C
Wind Press
QNH
hPa
Press
MSL
hPa
Rain
since 9 am
mm
Dir
 
Spd
km/h
Gust
km/h
Spd
kts
Gust
kts
03/11:30pm 11.7 9.6 8.2 79 1.7 NW 9 13 5 7 1010.1 1010.2 0.2
03/11:00pm 12.6 11.0 8.9 78 1.9 NW 7 9 4 5 1009.9 1010.0 0.2
03/10:30pm 13.0 10.6 8.7 75 2.2 NW 11 17 6 9 1009.7 1009.8 0.2
03/10:00pm 13.2 10.5 9.1 76 2.1 NW 13 17 7 9 1009.7 1009.8 0.2
03/09:30pm 13.9 10.4 8.9 72 2.5 WNW 17 24 9 13 1009.3 1009.4 0.2
03/09:00pm 14.1 11.1 10.5 79 1.9 WNW 17 24 9 13 1008.8 1008.9 0.2
03/08:30pm 14.0 11.8 12.0 88 1.1 NNW 15 19 8 10 1008.2 1008.3 0.2
03/08:00pm 14.1 11.4 11.8 86 1.2 NNW 17 20 9 11 1007.6 1007.7 0.2
03/07:30pm 13.9 12.0 11.8 87 1.1 NNW 13 17 7 9 1007.4 1007.5 0.2
03/07:00pm 14.2 11.8 11.5 84 1.5 NNW 15 19 8 10 1007.2 1007.2 0.2
03/06:30pm 14.3 12.0 11.6 84 1.5 NNW 15 20 8 11 1006.5 1006.5 0.2
03/06:00pm 14.6 12.5 12.5 87 1.2 N 15 20 8 11 1005.7 1005.7 0.2
03/05:30pm 14.5 12.6 13.0 91 0.8 N 15 20 8 11 1005.5 1005.5 0.2
03/05:00pm 14.7 11.6 13.4 92 0.7 NNW 22 32 12 17 1005.0 1005.0 0.2
03/04:58pm 14.7 11.6 13.4 92 0.7 N 22 32 12 17 1005.0 1005.0 0.2
03/04:46pm 14.4 11.8 13.1 92 0.7 NNW 19 28 10 15 1004.7 1004.7 0.2
03/04:37pm 14.5 11.7 13.2 92 0.7 WNW 20 33 11 18 1005.4 1005.4 0.2
03/04:30pm 14.4 10.3 12.8 90 0.9 WNW 26 37 14 20 1005.2 1005.2 0.2
03/04:25pm 14.7 9.4 12.6 87 1.2 WNW 32 41 17 22 1005.1 1005.1 0.2
03/04:21pm 14.9 9.5 12.2 84 1.5 WNW 32 50 17 27 1005.1 1005.1 0.2
03/04:19pm 15.0 9.4 12.1 83 1.6 WNW 33 50 18 27 1005.0 1005.0 0.2
03/04:02pm 15.3 7.5 11.3 77 2.2 WNW 43 67 23 36 1004.7 1004.7 0.2
03/04:00pm 15.5 7.0 10.7 73 2.6 WNW 46 67 25 36 1004.7 1004.7 0.2
03/03:55pm 16.9 8.5 9.8 63 3.8 WNW 44 67 24 36 1004.3 1004.3 0.2
03/03:52pm 17.8 9.3 9.2 57 4.5 NW 44 63 24 34 1004.1 1004.1 0.2
03/03:36pm 18.3 12.3 8.6 53 5.1 NNW 30 52 16 28 1003.6 1003.7 0.2
03/03:30pm 18.3 12.6 8.3 52 5.2 NNW 28 39 15 21 1003.5 1003.6 0.2
03/03:01pm 18.1 12.0 8.1 52 5.2 NNW 30 48 16 26 1003.3 1003.4 0.2
03/03:00pm 18.1 11.6 8.1 52 5.2 NNW 32 48 17 26 1003.3 1003.4 0.2
03/02:30pm 17.9 10.2 7.3 50 5.4 NNW 37 65 20 35 1003.5 1003.6 0.2
03/02:03pm 18.1 9.8 6.3 46 5.9 NNW 39 57 21 31 1003.4 1003.5 0.2
03/02:00pm 18.2 9.6 6.4 46 5.9 NNW 41 57 22 31 1003.4 1003.5 0.2
03/01:31pm 19.1 10.7 7.2 46 6.1 NNW 41 59 22 32 1003.5 1003.6 0.2
03/01:30pm 19.0 10.1 6.8 45 6.2 NNW 43 59 23 32 1003.5 1003.6 0.2
03/01:22pm 18.8 10.6 6.6 45 6.1 NNW 39 59 21 32 1003.4 1003.5 0.2
03/01:00pm 19.0 12.2 6.8 45 6.2 NNW 32 46 17 25 1004.0 1004.0 0.2
03/12:47pm 19.4 12.0 6.8 44 6.4 NNW 35 56 19 30 1004.0 1004.0 0.2
03/12:30pm 18.2 10.7 6.4 46 5.9 NNW 35 50 19 27 1004.6 1004.6 0.2
03/12:06pm 18.0 11.5 6.5 47 5.7 NNW 30 50 16 27 1005.0 1005.0 0.2
03/12:00pm 18.5 11.6 6.4 45 6.1 NNW 32 41 17 22 1005.1 1005.1 0.2
03/11:31am 18.6 11.5 6.4 45 6.1 N 33 56 18 30 1005.4 1005.4 0.0
03/11:30am 18.8 11.7 6.6 45 6.1 NNW 33 48 18 26 1005.5 1005.5 0.0
03/11:00am 18.3 12.1 8.0 51 5.3 N 30 41 16 22 1005.8 1005.8 0.0
03/10:30am 17.1 11.1 6.9 51 5.1 N 28 41 15 22 1005.9 1005.9 0.0
03/10:00am 16.2 9.7 6.3 52 4.9 NNE 30 41 16 22 1006.3 1006.3 0.0
03/09:30am 15.2 9.3 5.7 53 4.6 N 26 37 14 20 1007.2 1007.2 0.0
03/09:00am 14.0 8.4 5.6 57 4.0 N 24 32 13 17 1007.5 1007.6 0.0
03/08:30am 13.5 8.3 5.4 58 3.8 N 22 32 12 17 1007.7 1007.8 0.0
03/08:00am 13.5 8.7 5.4 58 3.8 N 20 26 11 14 1007.9 1008.0 0.0
03/07:30am 13.2 8.9 5.4 59 3.7 NNE 17 22 9 12 1007.8 1007.9 0.0
03/07:00am 12.9 8.2 5.3 60 3.6 NNE 19 22 10 12 1007.8 1007.9 0.0
03/06:30am 13.2 8.3 5.1 58 3.8 N 20 26 11 14 1008.0 1008.1 0.0
03/06:00am 12.9 8.1 5.6 61 3.5 NNE 20 28 11 15 1007.9 1008.0 0.0
03/05:30am 12.2 7.7 6.0 66 2.9 NNE 19 22 10 12 1008.2 1008.3 0.0
03/05:00am 11.9 7.8 6.0 67 2.8 NE 17 20 9 11 1008.6 1008.7 0.0
03/04:30am 11.9 8.2 6.2 68 2.7 NNE 15 20 8 11 1008.6 1008.7 0.0
03/04:00am 11.7 7.6 6.0 68 2.7 NNE 17 24 9 13 1008.5 1008.6 0.0
03/03:30am 11.7 7.6 6.0 68 2.7 NNE 17 20 9 11 1009.0 1009.1 0.0
03/03:00am 11.4 6.9 6.1 70 2.5 NNE 19 26 10 14 1009.0 1009.1 0.0
03/02:30am 11.5 7.7 6.0 69 2.6 NNE 15 19 8 10 1009.6 1009.7 0.0
03/02:00am 11.7 7.5 5.8 67 2.8 NNE 17 22 9 12 1009.9 1010.0 0.0
03/01:30am 12.0 7.8 5.9 66 2.9 NNE 17 22 9 12 1010.1 1010.2 0.0
03/01:00am 12.6 7.5 5.8 63 3.2 NNE 22 30 12 16 1010.3 1010.4 0.0
03/12:30am 12.8 8.0 5.7 62 3.4 NNE 20 28 11 15 1010.5 1010.6 0.0
03/12:00am 12.7 7.9 5.8 63 3.3 NNE 20 32 11 17 1010.5 1010.6 0.0
 
Date/Time
EST
Temp
°C
App
Temp
°C
Dew
Point
Rel
Hum
%
Delta-T
°C
Wind Press
QNH
hPa
Press
MSL
hPa
Rain
since 9 am
mm
Dir
 
Spd
km/h
Gust
km/h
Spd
kts
Gust
kts
02/11:30pm 12.6 7.1 6.0 64 3.1 NNE 24 32 13 17 1010.8 1010.9 0.0
02/11:00pm 12.2 7.5 6.0 66 2.9 NNE 20 26 11 14 1011.1 1011.2 0.0
02/10:30pm 11.4 6.8 5.7 68 2.7 NNE 19 24 10 13 1011.5 1011.5 0.0
02/10:00pm 11.6 7.4 5.7 67 2.8 NNE 17 22 9 12 1012.0 1012.0 0.0
02/09:30pm 11.6 7.4 5.7 67 2.8 NNE 17 20 9 11 1012.0 1012.0 0.0
02/09:00pm 11.6 7.4 5.7 67 2.8 NNE 17 20 9 11 1012.1 1012.1 0.0
02/08:30pm 12.3 8.1 5.9 65 3.0 NNE 17 20 9 11 1012.4 1012.4 0.0
02/08:00pm 12.7 8.2 6.1 64 3.1 NNE 19 24 10 13 1012.4 1012.4 0.0
02/07:30pm 12.1 8.0 6.2 67 2.8 NNE 17 22 9 12 1012.3 1012.3 0.0
02/07:00pm 12.6 8.5 6.4 66 3.0 NNE 17 22 9 12 1012.0 1012.0 0.0
02/06:30pm 12.8 9.5 6.2 64 3.2 NNE 13 17 7 9 1012.4 1012.4 0.0
02/06:00pm 13.4 9.6 5.6 59 3.7 NNE 15 20 8 11 1012.2 1012.2 0.0
02/05:30pm 14.2 9.9 5.3 55 4.2 N 17 24 9 13 1012.2 1012.2 0.0
02/05:00pm 15.2 10.5 5.1 51 4.8 N 19 28 10 15 1012.1 1012.1 0.0
02/04:30pm 15.2 10.4 5.4 52 4.7 N 20 30 11 16 1012.2 1012.2 0.0
02/04:00pm 16.3 11.5 5.6 49 5.2 NNW 20 26 11 14 1012.4 1012.4 0.0
02/03:30pm 15.7 9.6 4.7 48 5.2 NNW 26 37 14 20 1012.5 1012.5 0.0
02/03:00pm 15.8 9.5 3.9 45 5.5 NNW 26 35 14 19 1012.7 1012.7 0.0
02/02:30pm 16.4 10.1 5.7 49 5.2 NNW 28 39 15 21 1012.6 1012.6 0.0
02/02:00pm 14.9 9.5 6.2 56 4.2 NNW 24 35 13 19 1012.9 1012.9 0.0
02/01:30pm 14.5 11.2 8.2 66 3.2 N 15 22 8 12 1012.9 1012.9 0.0
02/01:00pm 13.3 9.5 7.5 68 2.9 NNE 17 22 9 12 1013.5 1013.6 0.0
02/12:30pm 13.8 8.8 8.2 69 2.8 NNE 24 32 13 17 1013.8 1013.9 0.0
02/12:00pm 12.5 8.8 7.8 73 2.3 N 17 22 9 12 1014.5 1014.6 0.0
02/11:30am 11.8 8.4 7.7 76 2.0 NNE 15 22 8 12 1014.9 1015.0 0.0
02/11:00am 10.7 7.0 7.8 82 1.4 NNE 17 20 9 11 1015.1 1015.2 0.0
02/10:30am 9.6 5.8 7.5 87 1.0 NNE 17 22 9 12 1015.5 1015.6 0.0
02/10:00am 9.2 5.8 7.6 90 0.8 NNE 15 20 8 11 1015.6 1015.7 0.0
02/09:30am 8.6 5.5 7.1 90 0.7 NNE 13 19 7 10 1015.5 1015.6 0.0
02/09:00am 8.3 5.2 7.1 92 0.6 NNE 13 15 7 8 1015.7 1015.8 0.6
02/08:30am 7.9 4.3 6.7 92 0.6 NNE 15 19 8 10 1015.8 1015.9 0.6
02/08:00am 7.6 3.7 6.9 95 0.3 NE 17 20 9 11 1015.7 1015.8 0.6
02/07:30am 6.8 2.8 6.7 99 0.0 NE 17 20 9 11 1015.4 1015.5 0.6
02/07:00am 5.6 2.1 5.5 99 0.0 NE 13 17 7 9 1015.6 1015.7 0.6
02/06:30am 5.1 1.5 5.0 99 0.0 NE 13 15 7 8 1015.6 1015.7 0.6
02/06:00am 4.4 1.1 4.3 99 0.0 NE 11 13 6 7 1015.6 1015.7 0.6
02/05:30am 4.0 0.5 3.7 98 0.1 NE 11 13 6 7 1015.8 1015.9 0.6

Other Formats:

Comma delimited format used in spreadsheet applications
http://www.bom.gov.au/fwo/IDV60801/IDV60801.94874.axf

JavaScript Object Notation format (JSON) in row-major order
http://www.bom.gov.au/fwo/IDV60801/IDV60801.94874.json